createdAt,value
2022-11-15T00:01:18.086Z,0.40
2022-11-15T00:04:19.664Z,0.50
2022-11-15T00:07:48.407Z,0.47
2022-11-15T00:10:43.672Z,0.40
2022-11-15T00:13:45.179Z,0.40
2022-11-15T00:16:46.999Z,0.50
2022-11-15T00:19:48.492Z,0.40
2022-11-15T00:22:50.048Z,0.35
2022-11-15T00:25:59.037Z,0.40
2022-11-15T00:29:00.568Z,0.38
2022-11-15T00:32:02.140Z,0.43
2022-11-15T00:35:04.062Z,0.40
2022-11-15T00:38:05.615Z,0.30
2022-11-15T00:41:09.858Z,0.43
2022-11-15T00:44:11.736Z,0.40
2022-11-15T00:47:13.271Z,0.40
2022-11-15T00:50:15.550Z,0.40
2022-11-15T00:53:17.803Z,0.32
2022-11-15T00:56:19.371Z,0.30
2022-11-15T00:59:20.887Z,0.40
2022-11-15T01:02:22.421Z,0.40
2022-11-15T01:05:24.235Z,0.30
2022-11-15T01:08:26.117Z,0.30
2022-11-15T01:11:27.662Z,0.30
2022-11-15T01:14:29.186Z,0.28
2022-11-15T01:17:31.818Z,0.40
2022-11-15T01:20:33.363Z,0.40
2022-11-15T01:23:35.179Z,0.30
2022-11-15T01:26:36.824Z,0.30
2022-11-15T01:29:39.575Z,0.30
2022-11-15T01:32:41.104Z,0.30
2022-11-15T01:35:42.727Z,0.40
2022-11-15T01:38:44.288Z,0.35
2022-11-15T01:41:46.054Z,0.35
2022-11-15T01:44:52.642Z,0.30
2022-11-15T01:47:55.881Z,0.30
2022-11-15T01:50:58.215Z,0.30
2022-11-15T01:54:07.735Z,0.30
2022-11-15T01:57:12.304Z,0.30
2022-11-15T02:00:15.463Z,0.40
2022-11-15T02:03:17.511Z,0.30
2022-11-15T02:06:21.185Z,0.35
2022-11-15T02:09:22.720Z,0.30
2022-11-15T02:12:24.358Z,0.30
2022-11-15T02:15:30.839Z,0.35
2022-11-15T02:18:39.129Z,0.30
2022-11-15T02:21:46.529Z,0.30
2022-11-15T02:25:12.802Z,0.30
2022-11-15T02:28:17.034Z,0.20
2022-11-15T02:31:18.539Z,0.30
2022-11-15T02:34:29.025Z,0.30
2022-11-15T02:37:58.355Z,0.40
2022-11-15T02:41:11.951Z,0.30
2022-11-15T02:44:24.858Z,0.30
2022-11-15T02:47:31.187Z,0.35
2022-11-15T02:50:34.260Z,0.30
2022-11-15T02:53:35.950Z,0.30
2022-11-15T02:56:37.631Z,0.30
2022-11-15T03:00:08.536Z,0.30
2022-11-15T03:03:51.904Z,0.30
2022-11-15T03:07:09.168Z,0.30
2022-11-15T03:10:18.934Z,0.30
2022-11-15T03:13:44.154Z,0.20
2022-11-15T03:17:17.407Z,0.30
2022-11-15T03:20:20.318Z,0.35
2022-11-15T03:23:21.875Z,0.40
2022-11-15T03:26:25.035Z,0.30
2022-11-15T03:29:34.622Z,0.30
2022-11-15T03:32:41.251Z,0.30
2022-11-15T03:35:45.698Z,0.40
2022-11-15T03:38:47.285Z,0.30
2022-11-15T03:41:58.002Z,0.20
2022-11-15T03:45:18.989Z,0.25
2022-11-15T03:48:27.764Z,0.30
2022-11-15T03:51:30.692Z,0.32
2022-11-15T03:54:32.478Z,0.30
2022-11-15T03:57:34.055Z,0.40
2022-11-15T04:00:35.633Z,0.40
2022-11-15T04:03:37.188Z,0.35
2022-11-15T04:06:38.857Z,0.40
2022-11-15T04:10:00.359Z,0.40
2022-11-15T04:13:03.764Z,0.40
2022-11-15T04:16:05.360Z,0.40
2022-11-15T04:19:25.632Z,0.30
2022-11-15T04:22:45.426Z,0.50
2022-11-15T04:25:53.701Z,0.40
2022-11-15T04:29:13.796Z,0.40
2022-11-15T04:32:15.295Z,0.47
2022-11-15T04:35:16.835Z,0.50
2022-11-15T04:38:18.379Z,0.50
2022-11-15T04:41:19.910Z,0.50
2022-11-15T04:44:21.410Z,0.32
2022-11-15T04:47:23.024Z,0.40
2022-11-15T04:50:24.523Z,0.60
2022-11-15T04:53:26.048Z,0.50
2022-11-15T04:56:27.596Z,0.60
2022-11-15T04:59:29.134Z,0.60
2022-11-15T05:02:50.610Z,0.50
2022-11-15T05:05:52.244Z,0.60
2022-11-15T05:08:54.171Z,0.60
2022-11-15T05:11:55.699Z,0.30
2022-11-15T05:14:57.194Z,0.50
2022-11-15T05:18:00.940Z,0.50
2022-11-15T05:21:06.922Z,0.30
2022-11-15T05:24:11.140Z,0.40
2022-11-15T05:27:12.672Z,0.40
2022-11-15T05:30:14.542Z,0.50
2022-11-15T05:33:16.221Z,0.47
2022-11-15T05:36:21.228Z,0.38
2022-11-15T05:39:22.961Z,0.40
2022-11-15T05:42:27.807Z,0.40
2022-11-15T05:45:29.924Z,0.50
2022-11-15T05:48:32.483Z,0.50
2022-11-15T05:51:34.684Z,0.35
2022-11-15T05:54:37.913Z,0.40
2022-11-15T05:57:39.512Z,0.30
2022-11-15T06:00:41.195Z,0.32
2022-11-15T06:03:42.828Z,0.40
2022-11-15T06:06:44.434Z,0.40
2022-11-15T06:09:45.968Z,0.35
2022-11-15T06:12:47.561Z,0.40
2022-11-15T06:15:49.279Z,0.47
2022-11-15T06:18:50.847Z,0.50
2022-11-15T06:21:52.371Z,0.40
2022-11-15T06:24:53.897Z,0.38
2022-11-15T06:27:56.953Z,0.40
2022-11-15T06:31:11.952Z,0.20
2022-11-15T06:34:13.502Z,0.30
2022-11-15T06:37:15.057Z,0.20
2022-11-15T06:40:17.007Z,0.30
2022-11-15T06:43:18.586Z,0.30
2022-11-15T06:46:20.195Z,0.30
2022-11-15T06:49:21.744Z,0.20
2022-11-15T06:52:23.285Z,0.40
2022-11-15T06:55:24.879Z,0.22
2022-11-15T06:58:26.390Z,0.20
2022-11-15T07:01:27.974Z,0.28
2022-11-15T07:04:29.554Z,0.20
2022-11-15T07:07:31.140Z,0.30
2022-11-15T07:10:32.701Z,0.25
2022-11-15T07:13:35.872Z,0.25
2022-11-15T07:16:38.160Z,0.20
2022-11-15T07:19:39.692Z,0.20
2022-11-15T07:22:42.246Z,0.32
2022-11-15T07:25:43.809Z,0.20
2022-11-15T07:28:45.591Z,0.20
2022-11-15T07:31:47.156Z,0.32
2022-11-15T07:34:48.960Z,0.20
2022-11-15T07:38:03.607Z,0.20
2022-11-15T07:41:06.412Z,0.28
2022-11-15T07:44:07.987Z,0.30
2022-11-15T07:47:09.488Z,0.30
2022-11-15T07:50:11.040Z,0.30
2022-11-15T07:53:12.587Z,0.20
2022-11-15T07:56:14.484Z,0.20
2022-11-15T07:59:16.027Z,0.20
2022-11-15T08:02:18.863Z,0.52
2022-11-15T08:05:20.518Z,0.20
2022-11-15T08:08:23.151Z,0.20
2022-11-15T08:11:24.713Z,0.30
2022-11-15T08:14:26.309Z,0.20
2022-11-15T08:17:28.384Z,0.20
2022-11-15T08:20:31.016Z,0.30
2022-11-15T08:23:33.354Z,0.40
2022-11-15T08:26:35.031Z,0.40
2022-11-15T08:29:37.043Z,0.30
2022-11-15T08:32:38.735Z,0.30
2022-11-15T08:35:42.357Z,0.20
2022-11-15T08:38:44.338Z,0.30
2022-11-15T08:41:45.919Z,0.40
2022-11-15T08:44:47.506Z,0.40
2022-11-15T08:47:53.943Z,0.40
2022-11-15T08:50:57.336Z,0.35
2022-11-15T08:53:59.070Z,0.40
2022-11-15T08:57:00.621Z,0.40
2022-11-15T09:00:02.277Z,0.38
2022-11-15T09:03:07.524Z,0.40
2022-11-15T09:06:10.205Z,0.35
2022-11-15T09:09:11.782Z,0.40
2022-11-15T09:12:13.545Z,0.30
2022-11-15T09:15:16.669Z,0.40
2022-11-15T09:18:18.227Z,0.40
2022-11-15T09:21:19.751Z,0.40
2022-11-15T09:24:22.163Z,0.32
2022-11-15T09:27:24.153Z,0.40
2022-11-15T09:30:26.410Z,0.30
2022-11-15T09:33:28.922Z,0.20
2022-11-15T09:36:30.788Z,0.20
2022-11-15T09:39:32.348Z,0.30
2022-11-15T09:42:52.274Z,0.20
2022-11-15T09:46:17.482Z,0.28
2022-11-15T09:49:19.595Z,0.20
2022-11-15T09:52:22.860Z,0.30
2022-11-15T09:55:50.058Z,0.30
2022-11-15T09:59:09.139Z,0.20
2022-11-15T10:02:41.285Z,0.20
2022-11-15T10:05:51.530Z,0.20
2022-11-15T10:09:23.999Z,0.30
2022-11-15T10:12:28.199Z,0.40
2022-11-15T10:15:30.047Z,0.30
2022-11-15T10:18:40.511Z,0.25
2022-11-15T10:21:42.048Z,0.30
2022-11-15T10:24:45.398Z,0.38
2022-11-15T10:27:55.256Z,0.30
2022-11-15T10:31:05.624Z,0.35
2022-11-15T10:34:20.173Z,0.50
2022-11-15T10:37:32.812Z,0.38
2022-11-15T10:40:35.426Z,0.35
2022-11-15T10:43:36.976Z,0.40
2022-11-15T10:46:48.355Z,0.30
2022-11-15T10:50:29.875Z,0.30
2022-11-15T10:53:39.859Z,0.30
2022-11-15T10:56:43.431Z,0.22
2022-11-15T10:59:52.671Z,0.17
2022-11-15T11:02:58.943Z,0.22
2022-11-15T11:06:13.350Z,0.20
2022-11-15T11:09:34.694Z,0.20
2022-11-15T11:12:36.447Z,0.20
2022-11-15T11:15:38.695Z,0.22
2022-11-15T11:19:11.555Z,0.22
2022-11-15T11:22:13.070Z,0.20
2022-11-15T11:25:23.284Z,0.20
2022-11-15T11:28:51.984Z,0.20
2022-11-15T11:32:17.897Z,0.20
2022-11-15T11:35:36.810Z,0.20
2022-11-15T11:38:38.335Z,0.20
2022-11-15T11:42:04.404Z,0.20
2022-11-15T11:45:14.818Z,0.20
2022-11-15T11:48:55.509Z,0.28
2022-11-15T11:52:02.138Z,0.20
2022-11-15T11:55:06.846Z,0.20
2022-11-15T11:58:17.235Z,0.20
2022-11-15T12:01:35.539Z,0.20
2022-11-15T12:04:41.688Z,0.20
2022-11-15T12:07:46.996Z,0.20
2022-11-15T12:10:55.339Z,0.10
2022-11-15T12:14:09.228Z,0.10
2022-11-15T12:17:12.921Z,0.17
2022-11-15T12:20:30.533Z,0.10
2022-11-15T12:23:53.450Z,0.20
2022-11-15T12:27:12.797Z,0.20
2022-11-15T12:30:18.256Z,0.20
2022-11-15T12:33:34.950Z,0.20
2022-11-15T12:36:41.772Z,0.17
2022-11-15T12:40:11.359Z,0.20
2022-11-15T12:43:16.026Z,0.20
2022-11-15T12:46:40.840Z,0.20
2022-11-15T12:49:42.305Z,0.20
2022-11-15T12:53:25.459Z,0.20
2022-11-15T12:56:27.070Z,0.20
2022-11-15T12:59:50.222Z,0.22
2022-11-15T13:03:18.759Z,0.20
2022-11-15T13:06:41.870Z,0.10
2022-11-15T13:09:43.384Z,0.20
2022-11-15T13:12:44.844Z,0.20
2022-11-15T13:15:57.051Z,0.10
2022-11-15T13:19:00.385Z,0.20
2022-11-15T13:22:28.379Z,0.20
2022-11-15T13:25:54.563Z,0.20
2022-11-15T13:28:57.335Z,0.20
2022-11-15T13:31:58.918Z,0.20
2022-11-15T13:35:01.735Z,0.30
2022-11-15T13:38:05.988Z,0.20
2022-11-15T13:41:21.337Z,0.30
2022-11-15T13:44:32.158Z,0.10
2022-11-15T13:47:34.010Z,0.13
2022-11-15T13:50:39.723Z,0.20
2022-11-15T13:53:47.588Z,0.20
2022-11-15T13:56:56.902Z,0.20
2022-11-15T14:00:06.678Z,0.30
2022-11-15T14:03:15.250Z,0.20
2022-11-15T14:06:20.361Z,0.20
2022-11-15T14:09:34.173Z,0.30
2022-11-15T14:12:36.764Z,0.30
2022-11-15T14:15:39.832Z,0.30
2022-11-15T14:18:44.351Z,0.20
2022-11-15T14:22:18.573Z,0.20
2022-11-15T14:25:22.941Z,0.20
2022-11-15T14:28:24.459Z,0.20
2022-11-15T14:31:26.059Z,0.20
2022-11-15T14:34:27.606Z,0.20
2022-11-15T14:37:35.636Z,0.13
2022-11-15T14:40:37.198Z,0.20
2022-11-15T14:43:38.706Z,0.20
2022-11-15T14:46:40.318Z,0.20
2022-11-15T14:49:42.408Z,0.20
2022-11-15T14:52:44.643Z,0.20
2022-11-15T14:55:46.249Z,0.10
2022-11-15T14:58:47.837Z,0.17
2022-11-15T15:01:49.392Z,0.20
2022-11-15T15:04:51.334Z,0.20
2022-11-15T15:07:54.287Z,0.20
2022-11-15T15:10:56.031Z,0.20
2022-11-15T15:13:59.279Z,0.20
2022-11-15T15:17:00.839Z,0.20
2022-11-15T15:20:02.364Z,0.17
2022-11-15T15:23:03.914Z,0.10
2022-11-15T15:26:05.451Z,0.20
2022-11-15T15:29:07.666Z,0.10
2022-11-15T15:32:10.130Z,0.20
2022-11-15T15:35:15.369Z,0.20
2022-11-15T15:38:16.970Z,0.20
2022-11-15T15:41:18.577Z,0.20
2022-11-15T15:44:20.150Z,0.20
2022-11-15T15:47:23.603Z,0.20
2022-11-15T15:50:25.116Z,0.13
2022-11-15T15:53:26.652Z,0.10
2022-11-15T15:56:29.161Z,0.20
2022-11-15T15:59:30.788Z,0.20
2022-11-15T16:02:36.230Z,0.20
2022-11-15T16:05:41.233Z,0.20
2022-11-15T16:09:08.172Z,0.20
2022-11-15T16:12:04.343Z,0.22
2022-11-15T16:15:06.362Z,0.20
2022-11-15T16:18:13.768Z,0.20
2022-11-15T16:21:15.327Z,0.20
2022-11-15T16:24:16.885Z,0.15
2022-11-15T16:27:21.149Z,0.20
2022-11-15T16:30:24.460Z,0.20
2022-11-15T16:33:26.624Z,0.22
2022-11-15T16:36:31.229Z,0.30
2022-11-15T16:39:33.498Z,0.20
2022-11-15T16:42:35.015Z,0.20
2022-11-15T16:45:36.621Z,0.20
2022-11-15T16:48:38.221Z,0.20
2022-11-15T16:51:41.672Z,0.20
2022-11-15T16:54:43.449Z,0.30
2022-11-15T16:57:45.281Z,0.20
2022-11-15T17:00:51.667Z,0.20
2022-11-15T17:03:54.210Z,0.20
2022-11-15T17:06:56.412Z,0.20
2022-11-15T17:09:58.177Z,0.20
2022-11-15T17:12:59.749Z,0.20
2022-11-15T17:16:06.685Z,0.22
2022-11-15T17:19:19.846Z,0.20
2022-11-15T17:22:21.559Z,0.20
2022-11-15T17:25:23.165Z,0.20
2022-11-15T17:28:24.780Z,0.30
2022-11-15T17:31:27.056Z,0.20
2022-11-15T17:34:28.626Z,0.15
2022-11-15T17:37:30.148Z,0.30
2022-11-15T17:40:31.741Z,0.30
2022-11-15T17:43:34.186Z,0.30
2022-11-15T17:46:36.466Z,0.20
2022-11-15T17:49:40.792Z,0.20
2022-11-15T17:52:42.419Z,0.22
2022-11-15T17:55:43.980Z,0.40
2022-11-15T17:58:53.568Z,0.30
2022-11-15T18:01:55.251Z,0.30
2022-11-15T18:04:56.803Z,0.40
2022-11-15T18:07:58.384Z,0.30
2022-11-15T18:11:32.942Z,0.40
2022-11-15T18:14:35.238Z,0.30
2022-11-15T18:17:37.376Z,0.40
2022-11-15T18:20:38.919Z,0.30
2022-11-15T18:23:41.803Z,0.30
2022-11-15T18:26:43.387Z,0.30
2022-11-15T18:29:45.079Z,0.30
2022-11-15T18:32:46.942Z,0.30
2022-11-15T18:35:48.671Z,0.30
2022-11-15T18:38:57.984Z,0.30
2022-11-15T18:41:59.602Z,0.20
2022-11-15T18:45:01.805Z,0.30
2022-11-15T18:48:03.539Z,0.30
2022-11-15T18:51:07.193Z,0.30
2022-11-15T18:54:14.087Z,0.28
2022-11-15T18:57:15.655Z,0.35
2022-11-15T19:00:17.939Z,0.30
2022-11-15T19:03:23.731Z,0.20
2022-11-15T19:06:29.150Z,0.20
2022-11-15T19:09:32.700Z,0.30
2022-11-15T19:12:34.299Z,0.30
2022-11-15T19:15:35.835Z,0.20
2022-11-15T19:18:37.425Z,0.20
2022-11-15T19:21:39.139Z,0.40
2022-11-15T19:24:40.956Z,0.30
2022-11-15T19:27:42.484Z,0.55
2022-11-15T19:30:44.086Z,0.40
2022-11-15T19:33:46.181Z,0.30
2022-11-15T19:36:47.712Z,0.40
2022-11-15T19:39:49.568Z,0.40
2022-11-15T19:42:51.107Z,0.50
2022-11-15T19:45:58.016Z,0.30
2022-11-15T19:49:02.603Z,0.30
2022-11-15T19:52:04.446Z,0.30
2022-11-15T19:55:06.563Z,0.30
2022-11-15T19:58:08.269Z,0.30
2022-11-15T20:01:20.239Z,0.50
2022-11-15T20:04:22.292Z,0.40
2022-11-15T20:07:23.848Z,0.40
2022-11-15T20:10:25.501Z,0.43
2022-11-15T20:13:27.891Z,0.30
2022-11-15T20:16:29.800Z,0.40
2022-11-15T20:19:31.454Z,0.22
2022-11-15T20:22:33.024Z,0.40
2022-11-15T20:25:38.008Z,0.47
2022-11-15T20:28:40.457Z,0.35
2022-11-15T20:31:41.995Z,0.50
2022-11-15T20:34:43.501Z,0.30
2022-11-15T20:37:45.719Z,0.30
2022-11-15T20:40:48.756Z,0.40
2022-11-15T20:43:50.393Z,0.40
2022-11-15T20:46:51.939Z,0.38
2022-11-15T20:49:55.523Z,0.40
2022-11-15T20:52:59.867Z,0.40
2022-11-15T20:56:10.875Z,0.40
2022-11-15T20:59:12.444Z,0.40
2022-11-15T21:02:15.178Z,0.50
2022-11-15T21:05:16.960Z,0.50
2022-11-15T21:08:18.486Z,0.50
2022-11-15T21:11:39.364Z,0.32
2022-11-15T21:14:41.714Z,0.40
2022-11-15T21:17:43.287Z,0.30
2022-11-15T21:20:44.982Z,0.38
2022-11-15T21:23:46.518Z,0.40
2022-11-15T21:26:48.042Z,0.30
2022-11-15T21:29:49.646Z,0.40
2022-11-15T21:32:51.163Z,0.50
2022-11-15T21:35:56.222Z,0.40
2022-11-15T21:38:57.825Z,0.28
2022-11-15T21:41:59.360Z,0.40
2022-11-15T21:45:00.901Z,0.30
2022-11-15T21:48:02.448Z,0.30
2022-11-15T21:51:10.061Z,0.50
2022-11-15T21:54:11.632Z,0.40
2022-11-15T21:57:13.197Z,0.30
2022-11-15T22:00:34.124Z,0.38
2022-11-15T22:03:36.459Z,0.30
2022-11-15T22:06:38.482Z,0.40
2022-11-15T22:09:40.321Z,0.40
2022-11-15T22:12:41.872Z,0.70
2022-11-15T22:15:46.453Z,0.30
2022-11-15T22:18:48.209Z,0.43
2022-11-15T22:21:49.787Z,0.30
2022-11-15T22:24:51.393Z,0.40
2022-11-15T22:27:53.458Z,0.40
2022-11-15T22:30:55.532Z,0.57
2022-11-15T22:33:57.112Z,0.50
2022-11-15T22:37:19.979Z,0.50
2022-11-15T22:40:20.220Z,0.40
2022-11-15T22:43:23.676Z,0.40
2022-11-15T22:46:25.325Z,0.40
2022-11-15T22:49:27.019Z,0.60
2022-11-15T22:52:28.576Z,0.60
2022-11-15T22:55:30.136Z,0.50
2022-11-15T22:58:33.358Z,0.40
2022-11-15T23:01:35.296Z,0.52
2022-11-15T23:04:36.840Z,0.70
2022-11-15T23:07:38.589Z,0.50
2022-11-15T23:10:59.141Z,0.40
2022-11-15T23:14:00.924Z,0.60
2022-11-15T23:17:02.507Z,0.50
2022-11-15T23:20:22.335Z,0.60
2022-11-15T23:23:26.242Z,0.60
2022-11-15T23:26:27.790Z,0.60
2022-11-15T23:29:30.261Z,0.40
2022-11-15T23:33:10.374Z,0.60
2022-11-15T23:36:11.950Z,0.50
2022-11-15T23:39:13.559Z,0.50
2022-11-15T23:42:19.727Z,0.60
2022-11-15T23:45:21.826Z,0.50
2022-11-15T23:48:23.519Z,0.40
2022-11-15T23:51:25.379Z,0.40
2022-11-15T23:54:26.950Z,0.40
2022-11-15T23:57:28.562Z,0.40
